Time;durP1;ratioP1;P1;durP2;ratioP2;P2;SDS_P1;SDS_P2;PMS_P1;PMS_P2;Temp;Humidity;BMP_temperature;BMP_pressure;BME280_temperature;BME280_humidity;BME280_pressure;Samples;Min_cycle;Max_cycle;Signal;HPM_P1;HPM_P2
2023/01/31 10:40:55;;;;;;;;;;;;;;;4.71;66.70;98859.47;5318401;23;19970;-62
2023/01/31 10:43:41;;;;;;;;;;;;;;;4.68;65.96;98855.25;4906618;29;19931;-62
2023/01/31 10:46:12;;;;;;;;;;;;;;;4.51;66.58;98857.59;4919519;29;20644;-62
2023/01/31 10:48:38;;;;;;;;;;;;;;;4.66;65.66;98859.66;4914063;29;19919;-62
2023/01/31 10:51:12;;;;;;;;;;;;;;;4.67;65.76;98852.69;4899165;29;19930;-62
2023/01/31 10:53:55;;;;;;;;;;;;;;;4.80;65.90;98842.75;4895506;29;19919;-62
2023/01/31 10:56:29;;;;;;;;;;;;;;;4.79;66.03;98836.69;4893479;29;19951;-63
2023/01/31 10:58:55;;;;;;;;;;;;;;;4.62;66.29;98833.84;4901718;29;19968;-63
2023/01/31 11:01:20;;;;;;;;;;;;;;;4.56;66.65;98834.88;4897837;29;19927;-63
2023/01/31 11:03:49;;;;;;;;;;;;;;;4.51;66.65;98842.84;4896841;29;19963;-63
2023/01/31 11:06:14;;;;;;;;;;;;;;;4.41;66.02;98846.66;4894153;29;19926;-63
2023/01/31 11:08:44;;;;;;;;;;;;;;;4.29;66.98;98849.63;4898304;29;19919;-63
2023/01/31 11:11:10;;;;;;;;;;;;;;;4.38;67.43;98841.56;4897749;29;19919;-63
2023/01/31 11:13:36;;;;;;;;;;;;;;;4.45;66.70;98831.81;4895084;29;20310;-63
2023/01/31 11:16:01;;;;;;;;;;;;;;;4.56;65.98;98829.69;4896585;29;19919;-64
2023/01/31 11:18:46;;;;;;;;;;;;;;;4.75;65.36;98829.91;4897082;29;20014;-64
2023/01/31 11:21:17;;;;;;;;;;;;;;;4.78;64.70;98834.97;4891979;29;19920;-63
2023/01/31 11:23:43;;;;;;;;;;;;;;;4.78;64.63;98834.13;4896563;29;19924;-63
2023/01/31 11:26:08;;;;;;;;;;;;;;;4.62;65.18;98820.84;4894766;29;20022;-64
2023/01/31 11:28:34;;;;;;;;;;;;;;;4.69;65.15;98819.72;4891524;29;19946;-64
2023/01/31 11:30:59;;;;;;;;;;;;;;;4.74;65.01;98808.25;4898100;29;20411;-63
2023/01/31 11:33:44;;;;;;;;;;;;;;;4.93;64.56;98798.06;4897035;29;19915;-64
2023/01/31 11:36:14;;;;;;;;;;;;;;;5.08;64.47;98790.59;4895901;29;19919;-63
2023/01/31 11:38:39;;;;;;;;;;;;;;;5.08;64.01;98785.41;4889563;29;20010;-62
2023/01/31 11:41:24;;;;;;;;;;;;;;;5.21;63.68;98781.44;4879206;29;20459;-64
2023/01/31 11:43:50;;;;;;;;;;;;;;;5.26;63.09;98773.44;4882430;29;19923;-64
2023/01/31 11:46:15;;;;;;;;;;;;;;;5.32;62.85;98774.06;4896322;29;19942;-63
2023/01/31 11:48:41;;;;;;;;;;;;;;;5.23;63.47;98770.06;4896005;29;19927;-64
2023/01/31 11:51:06;;;;;;;;;;;;;;;5.19;63.82;98762.44;4897660;29;19919;-64
2023/01/31 11:53:37;;;;;;;;;;;;;;;6.84;78.95;98758.25;4896523;29;19978;-64
2023/01/31 11:56:11;;;;;;;;;;;;;;;9.09;58.75;98727.19;4890038;29;19920;-62
2023/01/31 11:58:37;;;;;;;;;;;;;;;9.10;54.42;98721.03;4910217;29;19975;-61
2023/01/31 12:01:05;;;;;;;;;;;;;;;7.83;54.36;98729.25;4896270;29;19919;-61
2023/01/31 12:03:31;;;;;;;;;;;;;;;7.05;56.60;98724.28;4894623;29;19923;-63
2023/01/31 12:06:03;;;;;;;;;;;;;;;6.36;58.63;98722.16;4896422;29;19938;-62
2023/01/31 12:08:31;;;;;;;;;;;;;;;5.75;63.39;98735.97;4895244;29;19919;-63
2023/01/31 12:10:57;;;;;;;;;;;;;;;5.51;61.95;98731.75;4896657;29;19919;-62
2023/01/31 12:13:22;;;;;;;;;;;;;;;5.20;63.09;98717.34;4883802;29;19923;-62
2023/01/31 12:16:07;;;;;;;;;;;;;;;4.96;63.91;98722.56;4887849;29;19919;-62
2023/01/31 12:18:45;;;;;;;;;;;;;;;4.69;64.94;98715.78;4896721;29;20455;-63
2023/01/31 12:21:13;;;;;;;;;;;;;;;4.42;65.84;98708.06;4896507;29;19927;-60
2023/01/31 12:23:42;;;;;;;;;;;;;;;4.36;66.54;98695.31;4893984;29;20006;-62
2023/01/31 12:26:20;;;;;;;;;;;;;;;4.28;66.85;98710.31;4894935;29;19920;-62
2023/01/31 12:28:50;;;;;;;;;;;;;;;4.17;68.27;98707.25;4894106;29;19959;-62
2023/01/31 12:31:15;;;;;;;;;;;;;;;4.13;67.93;98713.44;4892472;29;20368;-62
2023/01/31 12:33:46;;;;;;;;;;;;;;;4.13;68.12;98710.84;4897347;29;19975;-62
2023/01/31 12:36:20;;;;;;;;;;;;;;;4.14;68.96;98715.16;4897414;29;19916;-62
2023/01/31 12:38:54;;;;;;;;;;;;;;;4.17;67.67;98708.09;4896949;29;19922;-62
2023/01/31 12:41:22;;;;;;;;;;;;;;;4.12;68.52;98719.53;4897073;29;20208;-62
2023/01/31 12:44:14;;;;;;;;;;;;;;;4.07;68.31;98711.06;4897186;29;19922;-62
2023/01/31 12:46:46;;;;;;;;;;;;;;;3.97;69.00;98715.72;4893392;29;19917;-62
2023/01/31 12:49:11;;;;;;;;;;;;;;;3.98;68.85;98722.59;4878399;29;20419;-62
2023/01/31 12:51:38;;;;;;;;;;;;;;;3.92;69.29;98718.47;4878498;29;20491;-62
2023/01/31 12:54:14;;;;;;;;;;;;;;;3.90;69.53;98740.19;4908589;29;19916;-62
2023/01/31 12:57:00;;;;;;;;;;;;;;;3.78;69.97;98725.84;4908589;29;19923;-62
2023/01/31 12:59:44;;;;;;;;;;;;;;;3.62;70.62;98740.22;4908482;29;19918;-62
2023/01/31 13:02:11;;;;;;;;;;;;;;;3.62;70.97;98735.88;4878427;29;19916;-62
2023/01/31 13:04:47;;;;;;;;;;;;;;;3.53;70.73;98731.81;4908237;29;19916;-62
2023/01/31 13:07:24;;;;;;;;;;;;;;;3.49;71.69;98747.53;4878328;29;19916;-62
2023/01/31 13:09:49;;;;;;;;;;;;;;;3.43;72.00;98739.94;4908390;29;19922;-62
2023/01/31 13:12:15;;;;;;;;;;;;;;;3.48;71.54;98733.72;4908475;29;19915;-62
2023/01/31 13:14:46;;;;;;;;;;;;;;;3.50;71.65;98752.66;4908390;29;19927;-62
2023/01/31 13:17:12;;;;;;;;;;;;;;;3.54;71.60;98732.66;4910920;29;20047;-62
2023/01/31 13:19:45;;;;;;;;;;;;;;;3.44;71.78;98745.09;4905032;29;20041;-62
2023/01/31 13:22:12;;;;;;;;;;;;;;;3.42;71.62;98728.72;4891558;29;19927;-62
2023/01/31 13:24:38;;;;;;;;;;;;;;;3.30;72.20;98724.78;4895765;29;19916;-62
2023/01/31 13:27:23;;;;;;;;;;;;;;;3.28;72.50;98739.53;4895465;29;20435;-61
2023/01/31 13:29:51;;;;;;;;;;;;;;;3.31;72.59;98725.63;4895519;29;19915;-62
2023/01/31 13:32:22;;;;;;;;;;;;;;;3.32;72.37;98720.38;4895705;29;20288;-62
2023/01/31 13:34:47;;;;;;;;;;;;;;;3.24;72.73;98724.13;4895782;29;20002;-62
2023/01/31 13:37:13;;;;;;;;;;;;;;;3.25;73.00;98702.47;4895578;29;19992;-60
2023/01/31 13:39:39;;;;;;;;;;;;;;;3.23;73.46;98693.88;4895360;29;19923;-62
2023/01/31 13:42:04;;;;;;;;;;;;;;;3.29;73.28;98676.41;4895517;29;19915;-62
2023/01/31 13:44:30;;;;;;;;;;;;;;;3.30;73.25;98672.94;4896982;29;19919;-62
2023/01/31 13:47:21;;;;;;;;;;;;;;;3.30;72.50;98659.97;4895581;29;20383;-62
2023/01/31 13:49:51;;;;;;;;;;;;;;;3.34;72.36;98655.53;4894985;29;20380;-62
2023/01/31 13:52:25;;;;;;;;;;;;;;;3.39;72.64;98651.03;4900104;29;20328;-62
2023/01/31 13:54:51;;;;;;;;;;;;;;;3.50;72.24;98637.72;4894205;29;19916;-62
2023/01/31 13:57:29;;;;;;;;;;;;;;;3.61;71.54;98640.78;4898763;29;19954;-62
2023/01/31 13:59:55;;;;;;;;;;;;;;;3.60;72.81;98631.31;4898925;29;20006;-62
2023/01/31 14:02:21;;;;;;;;;;;;;;;3.66;72.22;98622.50;4898782;29;20014;-62
2023/01/31 14:04:46;;;;;;;;;;;;;;;3.64;71.29;98625.13;4899959;29;19923;-62
2023/01/31 14:07:11;;;;;;;;;;;;;;;3.61;71.62;98608.81;4899693;29;19915;-62
2023/01/31 14:09:57;;;;;;;;;;;;;;;3.65;71.72;98610.41;4899947;29;19922;-62
2023/01/31 14:12:22;;;;;;;;;;;;;;;3.67;71.76;98613.81;4870466;29;19915;-63
2023/01/31 14:14:48;;;;;;;;;;;;;;;3.61;71.50;98599.28;4881086;29;20364;-62
2023/01/31 14:17:14;;;;;;;;;;;;;;;3.60;71.44;98605.38;4910802;29;19920;-62
2023/01/31 14:19:42;;;;;;;;;;;;;;;3.54;71.37;98619.41;4910710;29;19924;-62
2023/01/31 14:22:20;;;;;;;;;;;;;;;3.54;71.96;98619.41;4880848;29;19915;-62
2023/01/31 14:24:45;;;;;;;;;;;;;;;3.53;72.16;98607.34;4910952;29;19923;-62
2023/01/31 14:27:18;;;;;;;;;;;;;;;3.49;72.49;98608.34;4880591;29;19916;-62
2023/01/31 14:29:43;;;;;;;;;;;;;;;3.46;72.29;98616.22;4910455;29;19920;-62
2023/01/31 14:32:15;;;;;;;;;;;;;;;3.55;71.77;98615.91;4880650;29;20371;-62
2023/01/31 14:34:40;;;;;;;;;;;;;;;3.50;72.39;98596.22;4910862;29;19923;-62
2023/01/31 14:37:07;;;;;;;;;;;;;;;3.51;71.90;98592.72;4910544;29;19935;-62
2023/01/31 14:39:36;;;;;;;;;;;;;;;3.49;71.37;98595.38;4910534;29;19923;-62
2023/01/31 14:42:18;;;;;;;;;;;;;;;3.51;71.49;98593.59;4880559;29;19920;-62
2023/01/31 14:44:43;;;;;;;;;;;;;;;3.49;71.78;98599.72;4910982;29;20007;-63
2023/01/31 14:47:08;;;;;;;;;;;;;;;3.52;71.33;98584.91;4894489;29;20019;-62
2023/01/31 14:49:37;;;;;;;;;;;;;;;3.51;72.33;98595.31;4899096;29;19943;-62
2023/01/31 14:52:05;;;;;;;;;;;;;;;3.47;71.77;98612.72;4899105;29;19915;-62
2023/01/31 14:54:34;;;;;;;;;;;;;;;3.45;72.17;98605.91;4898909;29;19915;-62
2023/01/31 14:57:06;;;;;;;;;;;;;;;3.48;72.02;98598.88;4897624;29;20414;-62
2023/01/31 14:59:31;;;;;;;;;;;;;;;3.45;71.70;98605.91;4897807;29;19919;-62
2023/01/31 15:01:56;;;;;;;;;;;;;;;3.46;71.82;98605.00;4895525;29;19922;-62
2023/01/31 15:04:22;;;;;;;;;;;;;;;3.47;72.03;98586.78;4894940;29;20007;-62
2023/01/31 15:06:48;;;;;;;;;;;;;;;3.44;71.48;98589.50;4897779;29;19987;-62
2023/01/31 15:09:26;;;;;;;;;;;;;;;3.45;72.15;98580.81;4897418;29;19915;-62
2023/01/31 15:11:55;;;;;;;;;;;;;;;3.46;71.70;98569.53;4899116;29;19915;-62
2023/01/31 15:14:23;;;;;;;;;;;;;;;3.51;71.05;98562.47;4897497;29;19999;-62
2023/01/31 15:16:53;;;;;;;;;;;;;;;3.48;71.27;98562.56;4898753;29;19942;-64
2023/01/31 15:19:19;;;;;;;;;;;;;;;3.53;70.63;98546.84;4896102;29;19916;-62
2023/01/31 15:21:53;;;;;;;;;;;;;;;3.49;71.66;98547.84;4878612;29;19920;-63
2023/01/31 15:24:19;;;;;;;;;;;;;;;3.57;70.58;98533.69;4878590;29;19927;-63
2023/01/31 15:26:44;;;;;;;;;;;;;;;3.41;71.64;98550.72;4879673;29;20428;-60
2023/01/31 15:29:12;;;;;;;;;;;;;;;3.42;71.59;98573.13;4878332;29;19959;-61
2023/01/31 15:31:41;;;;;;;;;;;;;;;3.45;71.92;98560.06;4878419;29;20395;-60
2023/01/31 15:34:11;;;;;;;;;;;;;;;3.45;71.22;98567.84;4878494;29;19952;-60
2023/01/31 15:36:55;;;;;;;;;;;;;;;3.43;71.44;98564.44;4884553;29;19973;-61
2023/01/31 15:39:31;;;;;;;;;;;;;;;3.45;70.97;98567.00;4879188;29;20409;-60
2023/01/31 15:41:56;;;;;;;;;;;;;;;3.37;71.68;98577.63;4909478;29;19924;-60
2023/01/31 15:44:22;;;;;;;;;;;;;;;3.40;71.63;98567.16;4879455;29;19938;-61
2023/01/31 15:46:48;;;;;;;;;;;;;;;3.40;70.95;98582.69;4909479;29;19916;-61
2023/01/31 15:49:24;;;;;;;;;;;;;;;3.39;71.41;98585.38;4879013;29;19916;-63
2023/01/31 15:52:08;;;;;;;;;;;;;;;3.40;71.37;98585.31;4909467;29;20276;-62
2023/01/31 15:54:33;;;;;;;;;;;;;;;3.42;71.34;98588.69;4889779;29;19915;-62
2023/01/31 15:56:58;;;;;;;;;;;;;;;3.40;71.06;98582.69;4896440;29;19916;-61
2023/01/31 15:59:25;;;;;;;;;;;;;;;3.40;71.27;98585.31;4896593;29;19923;-63
2023/01/31 16:01:50;;;;;;;;;;;;;;;3.41;71.75;98586.19;4896701;29;19922;-62
2023/01/31 16:04:15;;;;;;;;;;;;;;;3.41;71.13;98581.81;4897963;29;19915;-62
2023/01/31 16:06:40;;;;;;;;;;;;;;;3.39;72.07;98581.03;4897767;29;20002;-63
2023/01/31 16:09:06;;;;;;;;;;;;;;;3.40;72.29;98582.69;4897447;29;20014;-62
2023/01/31 16:11:32;;;;;;;;;;;;;;;3.42;71.86;98570.53;4891712;29;20006;-62
2023/01/31 16:13:57;;;;;;;;;;;;;;;3.41;71.81;98570.63;4880600;29;19915;-62
2023/01/31 16:16:23;;;;;;;;;;;;;;;3.38;71.98;98574.16;4896360;29;19966;-62
2023/01/31 16:18:49;;;;;;;;;;;;;;;3.35;71.87;98579.44;4897487;29;20014;-63
2023/01/31 16:21:25;;;;;;;;;;;;;;;3.34;72.14;98593.31;4896271;29;19919;-62
2023/01/31 16:23:59;;;;;;;;;;;;;;;3.33;71.97;98589.00;4896320;29;19920;-62
2023/01/31 16:26:29;;;;;;;;;;;;;;;3.30;72.20;98583.91;4897409;29;19916;-62
2023/01/31 16:28:56;;;;;;;;;;;;;;;3.31;72.57;98575.25;4883506;29;19915;-62
2023/01/31 16:31:22;;;;;;;;;;;;;;;3.35;72.74;98571.66;4908648;29;19916;-63
2023/01/31 16:33:53;;;;;;;;;;;;;;;3.42;72.63;98564.53;4911131;29;20280;-63
2023/01/31 16:36:50;;;;;;;;;;;;;;;3.48;72.36;98582.47;4897396;29;19919;-63
2023/01/31 16:39:41;;;;;;;;;;;;;;;3.39;72.96;98573.25;4895799;29;19916;-63
2023/01/31 16:42:21;;;;;;;;;;;;;;;3.34;73.38;98567.38;4894430;29;19930;-61
2023/01/31 16:44:46;;;;;;;;;;;;;;;3.38;73.91;98571.56;4891424;29;19915;-62
2023/01/31 16:47:31;;;;;;;;;;;;;;;3.33;73.68;98594.19;4895784;29;19925;-63
2023/01/31 16:50:22;;;;;;;;;;;;;;;3.35;74.18;98576.84;4897159;29;19967;-63
2023/01/31 16:52:48;;;;;;;;;;;;;;;3.31;74.52;98585.63;4896310;29;19963;-61
2023/01/31 16:55:14;;;;;;;;;;;;;;;3.33;74.91;98586.41;4909824;29;19923;-61
2023/01/31 16:57:39;;;;;;;;;;;;;;;3.32;75.17;98577.78;4914731;29;19922;-61
2023/01/31 17:00:05;;;;;;;;;;;;;;;3.43;74.43;98574.81;4894476;29;19919;-61
2023/01/31 17:02:31;;;;;;;;;;;;;;;3.38;74.60;98586.28;4892212;29;20006;-61
2023/01/31 17:04:57;;;;;;;;;;;;;;;3.40;74.40;98568.91;4897334;29;20022;-61
2023/01/31 17:07:26;;;;;;;;;;;;;;;3.41;74.54;98561.09;4897233;29;19991;-62
2023/01/31 17:09:56;;;;;;;;;;;;;;;3.37;75.09;98567.25;4895850;29;20006;-62
2023/01/31 17:12:22;;;;;;;;;;;;;;;3.35;75.61;98561.28;4895846;29;19916;-61
2023/01/31 17:14:48;;;;;;;;;;;;;;;3.35;75.32;98558.69;4896893;29;19915;-61
2023/01/31 17:17:13;;;;;;;;;;;;;;;3.35;75.27;98563.88;4896813;29;20276;-61
2023/01/31 17:19:38;;;;;;;;;;;;;;;3.32;75.89;98564.81;4892449;29;19920;-62
2023/01/31 17:22:04;;;;;;;;;;;;;;;3.32;75.73;98569.16;4896847;29;19922;-61
2023/01/31 17:24:30;;;;;;;;;;;;;;;3.36;76.00;98578.53;4897738;29;19915;-61
2023/01/31 17:26:55;;;;;;;;;;;;;;;3.33;75.89;98576.88;4900996;29;20013;-61
2023/01/31 17:29:20;;;;;;;;;;;;;;;3.29;76.49;98588.25;4900235;29;20007;-61
2023/01/31 17:31:45;;;;;;;;;;;;;;;3.28;76.05;98591.75;4899279;29;20006;-61
2023/01/31 17:34:12;;;;;;;;;;;;;;;3.31;76.29;98596.00;4900511;29;19927;-63
2023/01/31 17:36:37;;;;;;;;;;;;;;;3.32;76.00;98582.13;4893107;29;19915;-61
2023/01/31 17:39:02;;;;;;;;;;;;;;;3.35;76.67;98587.22;4900040;29;19923;-61
2023/01/31 17:41:27;;;;;;;;;;;;;;;3.33;76.52;98600.22;4900007;29;19971;-61
2023/01/31 17:43:53;;;;;;;;;;;;;;;3.41;76.61;98586.19;4900210;29;19954;-61
2023/01/31 17:46:18;;;;;;;;;;;;;;;3.36;76.38;98581.13;4900090;29;19923;-62
2023/01/31 17:48:43;;;;;;;;;;;;;;;3.35;76.56;98571.66;4899901;29;20406;-61
2023/01/31 17:51:09;;;;;;;;;;;;;;;3.34;77.22;98585.53;4899960;29;19915;-62
2023/01/31 17:53:34;;;;;;;;;;;;;;;3.42;76.76;98583.50;4889397;29;19915;-62
2023/01/31 17:55:59;;;;;;;;;;;;;;;3.43;77.13;98563.59;4884251;29;20376;-62
2023/01/31 17:58:26;;;;;;;;;;;;;;;3.43;77.21;98564.44;4899755;29;19921;-61
2023/01/31 18:00:51;;;;;;;;;;;;;;;3.39;77.24;98568.06;4899711;29;19977;-61
2023/01/31 18:03:17;;;;;;;;;;;;;;;3.40;77.29;98567.16;4900050;29;19951;-61
2023/01/31 18:05:42;;;;;;;;;;;;;;;3.44;77.94;98558.38;4898773;29;19916;-61
2023/01/31 18:08:07;;;;;;;;;;;;;;;3.34;78.37;98559.59;4899428;29;19922;-61
2023/01/31 18:10:33;;;;;;;;;;;;;;;3.41;78.51;98560.25;4893634;29;19915;-61
2023/01/31 18:12:58;;;;;;;;;;;;;;;3.37;78.19;98562.06;4899702;29;20018;-61
2023/01/31 18:15:23;;;;;;;;;;;;;;;3.36;78.83;98578.53;4899602;29;20006;-61
2023/01/31 18:17:48;;;;;;;;;;;;;;;3.35;78.56;98569.06;4899337;29;20446;-61
2023/01/31 18:20:13;;;;;;;;;;;;;;;3.33;78.29;98579.47;4899473;29;20407;-61
2023/01/31 18:22:39;;;;;;;;;;;;;;;3.45;78.19;98573.03;4899583;29;20388;-61
2023/01/31 18:25:04;;;;;;;;;;;;;;;3.41;78.23;98581.81;4899526;29;19963;-61
2023/01/31 18:27:29;;;;;;;;;;;;;;;3.38;78.23;98571.56;4888988;29;19988;-61
2023/01/31 18:29:55;;;;;;;;;;;;;;;3.46;78.64;98573.88;4880605;29;19915;-61
2023/01/31 18:32:20;;;;;;;;;;;;;;;3.42;78.55;98567.97;4880675;29;19994;-61
2023/01/31 18:34:45;;;;;;;;;;;;;;;3.44;78.06;98573.06;4880490;29;19916;-61
2023/01/31 18:37:18;;;;;;;;;;;;;;;3.41;78.78;98563.69;4880064;29;20121;-61
2023/01/31 18:39:43;;;;;;;;;;;;;;;3.44;78.57;98560.97;4880371;29;19920;-62
2023/01/31 18:42:08;;;;;;;;;;;;;;;3.55;78.25;98553.66;4880576;29;19983;-61
2023/01/31 18:44:33;;;;;;;;;;;;;;;3.55;78.38;98568.38;4890698;29;19923;-62
2023/01/31 18:46:58;;;;;;;;;;;;;;;3.52;78.00;98566.75;4899139;29;19915;-61
2023/01/31 18:49:24;;;;;;;;;;;;;;;3.46;79.00;98559.16;4899076;29;20017;-62
2023/01/31 18:51:49;;;;;;;;;;;;;;;3.44;79.86;98560.97;4898959;29;19915;-62
2023/01/31 18:54:14;;;;;;;;;;;;;;;3.43;80.13;98569.63;4899019;29;19915;-61
2023/01/31 18:56:39;;;;;;;;;;;;;;;3.46;79.90;98566.94;4898841;29;19923;-61
2023/01/31 18:59:05;;;;;;;;;;;;;;;3.50;79.66;98567.69;4898573;29;20398;-62
2023/01/31 19:01:30;;;;;;;;;;;;;;;3.47;79.50;98554.81;4892572;29;19926;-61
2023/01/31 19:03:57;;;;;;;;;;;;;;;3.43;79.97;98558.44;4898836;29;20010;-61
2023/01/31 19:06:26;;;;;;;;;;;;;;;3.43;80.27;98574.81;4897430;29;19919;-61
2023/01/31 19:08:51;;;;;;;;;;;;;;;3.39;80.28;98570.66;4897312;29;19922;-61
2023/01/31 19:11:17;;;;;;;;;;;;;;;3.46;80.37;98566.94;4897419;29;19915;-61
2023/01/31 19:13:42;;;;;;;;;;;;;;;3.46;80.24;98564.34;4897369;29;19919;-61
2023/01/31 19:16:11;;;;;;;;;;;;;;;3.45;79.79;98565.25;4897200;29;19915;-60
2023/01/31 19:18:36;;;;;;;;;;;;;;;3.47;80.49;98576.41;4885373;29;19919;-61
2023/01/31 19:21:02;;;;;;;;;;;;;;;3.48;80.38;98567.75;4886034;29;19927;-61
2023/01/31 19:23:27;;;;;;;;;;;;;;;3.48;80.30;98564.31;4897162;29;19923;-61
2023/01/31 19:25:52;;;;;;;;;;;;;;;3.49;80.62;98563.41;4898393;29;19915;-62
2023/01/31 19:28:21;;;;;;;;;;;;;;;3.51;80.45;98559.88;4897277;29;19923;-62
2023/01/31 19:30:47;;;;;;;;;;;;;;;3.49;80.55;98564.25;4898229;29;19915;-62
2023/01/31 19:33:12;;;;;;;;;;;;;;;3.45;80.92;98572.19;4898202;29;20386;-62
2023/01/31 19:35:37;;;;;;;;;;;;;;;3.38;81.52;98576.75;4892129;29;20281;-62
2023/01/31 19:38:03;;;;;;;;;;;;;;;3.38;81.67;98579.34;4887731;29;19920;-62
2023/01/31 19:40:28;;;;;;;;;;;;;;;3.40;82.49;98589.63;4897839;29;20447;-62
2023/01/31 19:42:56;;;;;;;;;;;;;;;3.37;82.81;98595.78;4891840;29;20611;-62
2023/01/31 19:45:21;;;;;;;;;;;;;;;3.35;82.65;98587.22;4894774;29;20019;-63
2023/01/31 19:47:46;;;;;;;;;;;;;;;3.37;82.61;98592.34;4896890;29;19927;-62
2023/01/31 19:50:11;;;;;;;;;;;;;;;3.40;82.71;98569.75;4897795;29;19930;-63
2023/01/31 19:52:37;;;;;;;;;;;;;;;3.35;82.59;98566.47;4891788;29;19920;-62
2023/01/31 19:55:02;;;;;;;;;;;;;;;3.33;83.25;98579.47;4897769;29;19998;-62
2023/01/31 19:57:27;;;;;;;;;;;;;;;3.32;82.73;98567.41;4891616;29;19924;-62
2023/01/31 19:59:52;;;;;;;;;;;;;;;3.33;82.62;98576.88;4895410;29;20391;-62
2023/01/31 20:02:18;;;;;;;;;;;;;;;3.39;82.47;98585.38;4897602;29;20418;-63
2023/01/31 20:04:43;;;;;;;;;;;;;;;3.42;82.10;98578.31;4897059;29;19930;-62
2023/01/31 20:07:08;;;;;;;;;;;;;;;3.43;81.31;98582.59;4887776;29;19924;-62
2023/01/31 20:09:33;;;;;;;;;;;;;;;3.41;81.60;98599.13;4889150;29;19919;-62
2023/01/31 20:11:59;;;;;;;;;;;;;;;3.43;81.86;98580.00;4897190;29;19935;-62
2023/01/31 20:14:24;;;;;;;;;;;;;;;3.45;81.64;98577.38;4897390;29;20390;-62
2023/01/31 20:16:49;;;;;;;;;;;;;;;3.46;81.40;98559.16;4896577;29;20096;-62
2023/01/31 20:19:14;;;;;;;;;;;;;;;3.51;81.14;98567.66;4897095;29;20006;-63
2023/01/31 20:21:39;;;;;;;;;;;;;;;3.48;81.04;98567.75;4897281;29;20014;-62
2023/01/31 20:24:05;;;;;;;;;;;;;;;3.47;81.63;98560.84;4897208;29;19946;-62
2023/01/31 20:26:30;;;;;;;;;;;;;;;3.47;81.89;98571.22;4890003;29;19958;-63
2023/01/31 20:28:55;;;;;;;;;;;;;;;3.46;81.00;98564.34;4891497;29;19938;-63
2023/01/31 20:31:21;;;;;;;;;;;;;;;3.47;81.06;98571.22;4893602;29;19919;-62
2023/01/31 20:33:46;;;;;;;;;;;;;;;3.47;81.31;98573.81;4896906;29;19999;-63
2023/01/31 20:36:11;;;;;;;;;;;;;;;3.49;80.91;98573.78;4897211;29;19920;-62
2023/01/31 20:38:37;;;;;;;;;;;;;;;3.53;81.08;98555.47;4895760;29;19927;-63
2023/01/31 20:41:03;;;;;;;;;;;;;;;3.53;80.57;98555.47;4895136;29;20380;-62
2023/01/31 20:43:28;;;;;;;;;;;;;;;3.57;80.73;98551.84;4890263;29;20398;-62
2023/01/31 20:46:00;;;;;;;;;;;;;;;3.59;80.50;98535.41;4895335;29;19998;-63
2023/01/31 20:48:25;;;;;;;;;;;;;;;3.62;80.49;98535.31;4890174;29;19923;-64
2023/01/31 20:50:54;;;;;;;;;;;;;;;3.57;80.63;98533.69;4902489;29;19916;-63
2023/01/31 20:53:19;;;;;;;;;;;;;;;3.57;80.92;98538.88;4897008;29;20395;-62
2023/01/31 20:55:45;;;;;;;;;;;;;;;3.56;80.38;98544.13;4891376;29;19955;-63
2023/01/31 20:58:10;;;;;;;;;;;;;;;3.60;80.14;98531.91;4895686;29;20265;-63
2023/01/31 21:00:35;;;;;;;;;;;;;;;3.54;80.28;98533.84;4884563;29;20023;-63
2023/01/31 21:03:02;;;;;;;;;;;;;;;3.55;80.85;98542.47;4882387;29;19973;-63
2023/01/31 21:05:27;;;;;;;;;;;;;;;3.56;80.36;98544.13;4888680;29;19932;-62
2023/01/31 21:07:53;;;;;;;;;;;;;;;3.55;80.64;98548.47;4900323;29;19915;-63
2023/01/31 21:10:18;;;;;;;;;;;;;;;3.62;80.82;98556.06;4900983;29;19919;-62
